| time (UTC) | temp F | wind direction | speed knots | gust knots | rain 1hr in | rain 24hr in | rain mn in | humidity % | barometer mb |
| 20260505200035 | 51 | 11 | 1.7 | 7.0 | 0.00 | 0.00 | 0.00 | 77 | 1015.4 |
| 20260505195520 | 51 | 12 | 2.6 | 6.1 | 0.00 | 0.00 | 0.00 | 77 | 1015.3 |
| 20260505195021 | 51 | 13 | 2.6 | 7.8 | 0.00 | 0.00 | 0.00 | 77 | 1015.3 |
| 20260505194541 | 51 | 13 | 2.6 | 7.8 | 0.00 | 0.00 | 0.00 | 77 | 1015.2 |
| 20260505194021 | 51 | 15 | 2.6 | 7.0 | 0.00 | 0.00 | 0.00 | 77 | 1015.2 |
| 20260505193521 | 51 | 16 | 3.5 | 7.0 | 0.00 | 0.00 | 0.00 | 76 | 1015.1 |
| 20260505193046 | 51 | 16 | 3.5 | 7.8 | 0.00 | 0.00 | 0.00 | 76 | 1015.0 |
| 20260505192517 | 51 | 16 | 3.5 | 7.8 | 0.00 | 0.00 | 0.00 | 77 | 1015.0 |
| 20260505192021 | 52 | 16 | 3.5 | 7.8 | 0.00 | 0.00 | 0.00 | 76 | 1015.0 |
| 20260505191552 | 52 | 17 | 2.6 | 8.7 | 0.00 | 0.00 | 0.00 | 76 | 1015.0 |
| 20260505191027 | 52 | 18 | 3.5 | 8.7 | 0.00 | 0.00 | 0.00 | 76 | 1015.0 |
| 20260505190521 | 52 | 10 | 4.3 | 7.8 | 0.00 | 0.00 | 0.00 | 75 | 1015.0 |
| 20260505190038 | 52 | 13 | 2.6 | 7.8 | 0.00 | 0.00 | 0.00 | 76 | 1015.0 |
| 20260505185521 | 52 | 14 | 3.5 | 7.8 | 0.00 | 0.00 | 0.00 | 76 | 1015.0 |
| 20260505185022 | 52 | 11 | 4.3 | 7.8 | 0.00 | 0.00 | 0.00 | 76 | 1015.0 |
| 20260505184535 | 52 | 8 | 2.6 | 10.4 | 0.00 | 0.00 | 0.00 | 78 | 1014.9 |
| 20260505184022 | 53 | 6 | 4.3 | 13.0 | 0.00 | 0.00 | 0.00 | 77 | 1014.9 |
| 20260505183521 | 53 | 352 | 6.1 | 13.9 | 0.00 | 0.00 | 0.00 | 77 | 1014.7 |
| 20260505183042 | 53 | 3 | 5.2 | 13.9 | 0.00 | 0.00 | 0.00 | 75 | 1014.7 |
| 20260505182520 | 53 | 341 | 5.2 | 13.0 | 0.00 | 0.00 | 0.00 | 74 | 1014.7 |
| 20260505182021 | 54 | 6 | 4.3 | 12.2 | 0.00 | 0.00 | 0.00 | 73 | 1014.7 |
| 20260505181540 | 54 | 343 | 5.2 | 12.2 | 0.00 | 0.00 | 0.00 | 72 | 1014.7 |
| 20260505181022 | 54 | 345 | 4.3 | 13.0 | 0.00 | 0.00 | 0.00 | 71 | 1014.6 |
| 20260505180521 | 54 | 351 | 4.3 | 13.0 | 0.00 | 0.00 | 0.00 | 70 | 1014.7 |
| 20260505180052 | 55 | 334 | 7.0 | 13.0 | 0.00 | 0.00 | 0.00 | 67 | 1014.7 |
| 20260505175521 | 56 | 355 | 5.2 | 10.4 | 0.00 | 0.00 | 0.00 | 67 | 1014.7 |
| 20260505175022 | 56 | 358 | 3.5 | 13.0 | 0.00 | 0.00 | 0.00 | 66 | 1014.6 |
| 20260505174542 | 57 | 4 | 4.3 | 13.0 | 0.00 | 0.00 | 0.00 | 65 | 1014.7 |
| 20260505174021 | 56 | 2 | 5.2 | 12.2 | 0.00 | 0.00 | 0.00 | 65 | 1014.6 |
| 20260505173522 | 56 | 350 | 6.1 | 13.0 | 0.00 | 0.00 | 0.00 | 66 | 1014.7 |
| 20260505173045 | 56 | 15 | 4.3 | 13.0 | 0.00 | 0.00 | 0.00 | 71 | 1014.6 |
| 20260505172522 | 56 | 12 | 4.3 | 12.2 | 0.00 | 0.00 | 0.00 | 69 | 1014.6 |
| 20260505172021 | 56 | 344 | 6.1 | 11.3 | 0.00 | 0.00 | 0.00 | 67 | 1014.7 |
| 20260505171541 | 56 | 18 | 5.2 | 11.3 | 0.00 | 0.00 | 0.00 | 68 | 1014.7 |
| 20260505171020 | 55 | 10 | 5.2 | 10.4 | 0.00 | 0.00 | 0.00 | 70 | 1014.7 |
| 20260505170521 | 55 | 11 | 3.5 | 11.3 | 0.00 | 0.00 | 0.00 | 70 | 1014.7 |
| 20260505170055 | 55 | 10 | 6.1 | 11.3 | 0.00 | 0.00 | 0.00 | 69 | 1014.7 |
| 20260505165526 | 55 | 14 | 3.5 | 11.3 | 0.00 | 0.00 | 0.00 | 72 | 1014.7 |
| 20260505165021 | 55 | 341 | 6.1 | 11.3 | 0.00 | 0.00 | 0.00 | 72 | 1014.9 |
| 20260505164539 | 55 | 21 | 3.5 | 13.0 | 0.00 | 0.00 | 0.00 | 75 | 1014.7 |
| 20260505164021 | 56 | 27 | 3.5 | 13.0 | 0.00 | 0.00 | 0.00 | 73 | 1014.7 |
| 20260505163521 | 56 | 351 | 6.1 | 11.3 | 0.00 | 0.00 | 0.00 | 73 | 1014.8 |
| 20260505163040 | 56 | 18 | 5.2 | 10.4 | 0.00 | 0.00 | 0.00 | 73 | 1014.7 |
| 20260505162521 | 56 | 351 | 5.2 | 12.2 | 0.00 | 0.00 | 0.00 | 73 | 1014.8 |
| 20260505162018 | 57 | 14 | 6.1 | 12.2 | 0.00 | 0.00 | 0.00 | 73 | 1014.8 |
| 20260505161534 | 57 | 345 | 6.1 | 12.2 | 0.00 | 0.00 | 0.00 | 72 | 1014.8 |
| 20260505161020 | 56 | 357 | 4.3 | 13.0 | 0.00 | 0.00 | 0.00 | 74 | 1014.7 |
| 20260505160519 | 56 | 360 | 3.5 | 13.0 | 0.00 | 0.00 | 0.00 | 75 | 1014.8 |
| 20260505153052 | 54 | 8 | 4.3 | 10.4 | 0.00 | 0.00 | 0.00 | 77 | 1014.9 |
| 20260505152522 | 54 | 11 | 4.3 | 10.4 | 0.00 | 0.00 | 0.00 | 77 | 1014.9 |
| 20260505152021 | 53 | 5 | 3.5 | 11.3 | 0.00 | 0.00 | 0.00 | 77 | 1014.9 |
| 20260505151542 | 53 | 6 | 3.5 | 13.0 | 0.00 | 0.00 | 0.00 | 77 | 1015.0 |
| 20260505151021 | 53 | 11 | 7.0 | 13.0 | 0.00 | 0.00 | 0.00 | 76 | 1015.1 |
| 20260505150521 | 54 | 329 | 5.2 | 13.0 | 0.00 | 0.00 | 0.00 | 76 | 1015.1 |
| 20260505140521 | 58 | 12 | 5.2 | 13.9 | 0.00 | 0.00 | 0.00 | 68 | 1015.1 |
| 20260505125023 | 55 | 335 | 8.7 | 13.0 | 0.00 | 0.00 | 0.00 | 73 | 1015.1 |
| 20260505124547 | 56 | 8 | 6.1 | 17.4 | 0.00 | 0.00 | 0.00 | 70 | 1015.0 |
| 20260505124021 | 57 | 22 | 7.0 | 19.1 | 0.00 | 0.00 | 0.00 | 69 | 1014.9 |
| 20260505123520 | 58 | 8 | 7.0 | 19.1 | 0.00 | 0.00 | 0.00 | 68 | 1015.0 |
| 20260505123102 | 59 | 14 | 6.1 | 14.8 | 0.00 | 0.00 | 0.00 | 65 | 1015.0 |
| 20260505122522 | 59 | 15 | 6.1 | 13.9 | 0.00 | 0.00 | 0.00 | 66 | 1015.0 |
| 20260505122019 | 58 | 20 | 7.0 | 13.9 | 0.00 | 0.00 | 0.00 | 68 | 1015.0 |
| 20260505121542 | 58 | 358 | 7.0 | 13.0 | 0.00 | 0.00 | 0.00 | 67 | 1015.0 |
| 20260505121022 | 57 | 12 | 5.2 | 12.2 | 0.00 | 0.00 | 0.00 | 70 | 1015.1 |
| 20260505120526 | 56 | 6 | 6.1 | 12.2 | 0.00 | 0.00 | 0.00 | 72 | 1015.1 |
| 20260505120045 | 56 | 26 | 4.3 | 13.0 | 0.00 | 0.00 | 0.00 | 72 | 1015.1 |
| 20260505115521 | 56 | 11 | 5.2 | 13.0 | 0.00 | 0.00 | 0.00 | 73 | 1015.2 |
| 20260505115021 | 56 | 16 | 6.1 | 13.0 | 0.00 | 0.00 | 0.00 | 72 | 1015.2 |
| 20260505114603 | 56 | 356 | 4.3 | 12.2 | 0.00 | 0.00 | 0.00 | 73 | 1015.2 |
| 20260505114021 | 55 | 340 | 6.1 | 12.2 | 0.00 | 0.00 | 0.00 | 73 | 1015.2 |
| 20260505113521 | 54 | 359 | 5.2 | 10.4 | 0.00 | 0.00 | 0.00 | 76 | 1015.3 |
| 20260505113039 | 53 | 4 | 5.2 | 13.0 | 0.00 | 0.00 | 0.00 | 75 | 1015.4 |
| 20260505112520 | 53 | 22 | 6.1 | 13.0 | 0.00 | 0.00 | 0.00 | 74 | 1015.5 |
| 20260505112021 | 53 | 1 | 5.2 | 12.2 | 0.00 | 0.00 | 0.00 | 76 | 1015.5 |
| 20260505111556 | 52 | 16 | 5.2 | 12.2 | 0.00 | 0.00 | 0.00 | 76 | 1015.6 |
| 20260505111019 | 52 | 360 | 6.1 | 11.3 | 0.00 | 0.00 | 0.00 | 77 | 1015.5 |
| 20260505110519 | 53 | 25 | 6.1 | 10.4 | 0.00 | 0.00 | 0.00 | 78 | 1015.6 |
| 20260505102022 | 54 | 18 | 4.3 | 10.4 | 0.00 | 0.00 | 0.00 | 77 | 1015.4 |
| 20260505101536 | 54 | 4 | 4.3 | 11.3 | 0.00 | 0.00 | 0.00 | 77 | 1015.6 |
| 20260505101020 | 53 | 354 | 6.1 | 12.2 | 0.00 | 0.00 | 0.00 | 77 | 1015.5 |
| 20260505100521 | 53 | 345 | 5.2 | 12.2 | 0.00 | 0.00 | 0.00 | 77 | 1015.5 |
| 20260505100036 | 53 | 341 | 4.3 | 12.2 | 0.00 | 0.00 | 0.00 | 78 | 1015.6 |
| 20260505095519 | 53 | 355 | 6.1 | 12.2 | 0.00 | 0.00 | 0.00 | 78 | 1015.6 |
| 20260505095018 | 53 | 349 | 7.0 | 13.0 | 0.00 | 0.00 | 0.00 | 79 | 1015.6 |
| 20260505094546 | 53 | 360 | 5.2 | 13.0 | 0.00 | 0.00 | 0.00 | 80 | 1015.6 |
| 20260505094022 | 53 | 339 | 5.2 | 13.0 | 0.00 | 0.00 | 0.00 | 79 | 1015.7 |
| 20260505093519 | 53 | 3 | 4.3 | 12.2 | 0.00 | 0.00 | 0.00 | 81 | 1015.7 |
| 20260505093040 | 53 | 353 | 6.1 | 12.2 | 0.00 | 0.00 | 0.00 | 80 | 1015.6 |
| 20260505092520 | 53 | 2 | 5.2 | 10.4 | 0.00 | 0.00 | 0.00 | 82 | 1015.6 |
| 20260505092021 | 53 | 20 | 4.3 | 11.3 | 0.00 | 0.00 | 0.00 | 82 | 1015.7 |
| 20260505091541 | 53 | 353 | 4.3 | 11.3 | 0.00 | 0.00 | 0.00 | 83 | 1015.6 |
| 20260505091023 | 52 | 18 | 4.3 | 10.4 | 0.00 | 0.00 | 0.00 | 84 | 1015.6 |
| 20260505090523 | 52 | 345 | 6.1 | 10.4 | 0.00 | 0.00 | 0.00 | 83 | 1015.7 |
| 20260505090048 | 53 | 9 | 2.6 | 9.6 | 0.00 | 0.00 | 0.00 | 85 | 1015.7 |
| 20260505085519 | 53 | 335 | 3.5 | 12.2 | 0.00 | 0.00 | 0.00 | 86 | 1015.7 |
| 20260505085019 | 52 | 358 | 4.3 | 12.2 | 0.00 | 0.00 | 0.00 | 86 | 1015.6 |
| 20260505084537 | 52 | 10 | 2.6 | 7.0 | 0.00 | 0.00 | 0.00 | 87 | 1015.6 |
| 20260505084018 | 52 | 10 | 1.7 | 7.8 | 0.00 | 0.00 | 0.00 | 87 | 1015.7 |
| 20260505083518 | 52 | 10 | 2.6 | 9.6 | 0.00 | 0.00 | 0.00 | 88 | 1015.6 |
| 20260505083044 | 52 | 16 | 4.3 | 9.6 | 0.00 | 0.00 | 0.00 | 88 | 1015.7 |
| 20260505082518 | 51 | 2 | 2.6 | 9.6 | 0.00 | 0.00 | 0.00 | 88 | 1015.7 |
| 20260505082019 | 51 | 14 | 3.5 | 7.8 | 0.00 | 0.00 | 0.00 | 88 | 1015.7 |
| 20260505081548 | 51 | 22 | 2.6 | 7.0 | 0.00 | 0.00 | 0.00 | 87 | 1015.7 |
| 20260505081026 | 51 | 10 | 2.6 | 7.8 | 0.00 | 0.00 | 0.00 | 86 | 1015.7 |
| 20260505080518 | 50 | 16 | 2.6 | 7.8 | 0.00 | 0.00 | 0.00 | 86 | 1015.7 |
| 20260505080042 | 50 | 352 | 2.6 | 9.6 | 0.00 | 0.00 | 0.00 | 87 | 1015.7 |
| 20260505075521 | 50 | 352 | 3.5 | 9.6 | 0.00 | 0.00 | 0.00 | 87 | 1015.6 |
| 20260505075021 | 50 | 17 | 3.5 | 7.8 | 0.00 | 0.00 | 0.00 | 89 | 1015.7 |
| 20260505074544 | 50 | 16 | 2.6 | 7.0 | 0.00 | 0.00 | 0.00 | 91 | 1015.7 |
| 20260505074019 | 50 | 19 | 1.7 | 6.1 | 0.00 | 0.00 | 0.00 | 91 | 1015.8 |
| 20260505073518 | 50 | 10 | 3.5 | 6.1 | 0.00 | 0.00 | 0.00 | 92 | 1015.7 |
| 20260505073038 | 50 | 8 | 0.9 | 5.2 | 0.00 | 0.00 | 0.00 | 92 | 1015.7 |
| 20260505072519 | 50 | 8 | 1.7 | 5.2 | 0.00 | 0.00 | 0.00 | 93 | 1015.8 |
| 20260505072019 | 49 | 8 | 1.7 | 5.2 | 0.00 | 0.00 | 0.00 | 93 | 1015.7 |
| 20260505071541 | 49 | 8 | 0.9 | 6.1 | 0.00 | 0.00 | 0.00 | 94 | 1015.7 |
| 20260505071019 | 49 | 8 | 1.7 | 6.1 | 0.00 | 0.00 | 0.00 | 94 | 1015.7 |
| 20260505070521 | 49 | 9 | 1.7 | 5.2 | 0.00 | 0.00 | 0.00 | 95 | 1015.7 |
| 20260505070044 | 48 | 9 | 1.7 | 5.2 | 0.00 | 0.00 | 0.00 | 95 | 1015.6 |
| 20260505065518 | 48 | 9 | 0.9 | 5.2 | 0.00 | 0.00 | 0.00 | 96 | 1015.7 |
| 20260505065018 | 47 | 9 | 2.6 | 5.2 | 0.00 | 0.00 | 0.00 | 96 | 1015.8 |
| 20260505064554 | 47 | 310 | 0.9 | 2.6 | 0.00 | 0.00 | 0.00 | 96 | 1015.7 |
| 20260505064021 | 47 | 281 | 0.0 | 2.6 | 0.00 | 0.00 | 0.00 | 97 | 1015.7 |
| 20260505063520 | 46 | 278 | 0.0 | 2.6 | 0.00 | 0.00 | 0.00 | 97 | 1015.8 |
| 20260505063049 | 46 | 0 | 0.0 | 1.7 | 0.00 | 0.00 | 0.00 | 97 | 1015.9 |
| 20260505062519 | 45 | 275 | 0.0 | 1.7 | 0.00 | 0.00 | 0.00 | 97 | 1015.9 |
| 20260505062019 | 45 | 0 | 0.0 | 1.7 | 0.00 | 0.00 | 0.00 | 97 | 1015.9 |
| 20260505061542 | 44 | 0 | 0.9 | 1.7 | 0.00 | 0.00 | 0.00 | 97 | 1015.8 |
| 20260505061019 | 44 | 0 | 0.0 | 1.7 | 0.00 | 0.00 | 0.00 | 97 | 1015.8 |
| 20260505060519 | 43 | 271 | 0.0 | 1.7 | 0.00 | 0.00 | 0.00 | 97 | 1015.8 |
| 20260505060036 | 43 | 0 | 0.0 | 1.7 | 0.00 | 0.00 | 0.00 | 97 | 1015.8 |
| 20260505055520 | 42 | 0 | 0.0 | 1.7 | 0.00 | 0.00 | 0.00 | 97 | 1015.8 |
| 20260505055020 | 42 | 237 | 0.0 | 1.7 | 0.00 | 0.00 | 0.00 | 97 | 1015.8 |
| 20260505054535 | 41 | 0 | 0.0 | 1.7 | 0.00 | 0.00 | 0.00 | 97 | 1015.8 |
| 20260505054021 | 41 | 0 | 0.0 | 1.7 | 0.00 | 0.00 | 0.00 | 96 | 1015.8 |
| 20260505053520 | 40 | 0 | 0.0 | 0.9 | 0.00 | 0.00 | 0.00 | 96 | 1015.8 |
| 20260505053034 | 40 | 0 | 0.0 | 0.9 | 0.00 | 0.00 | 0.00 | 95 | 1015.8 |
| 20260505052518 | 40 | 0 | 0.0 | 0.0 | 0.00 | 0.00 | 0.00 | 95 | 1015.8 |
| 20260505052018 | 40 | 0 | 0.0 | 0.9 | 0.00 | 0.00 | 0.00 | 95 | 1015.8 |
| 20260505051542 | 40 | 0 | 0.0 | 0.9 | 0.00 | 0.00 | 0.00 | 94 | 1015.8 |
| 20260505051022 | 40 | 124 | 0.0 | 1.7 | 0.00 | 0.00 | 0.00 | 94 | 1015.7 |
| 20260505050523 | 40 | 0 | 0.0 | 1.7 | 0.00 | 0.00 | 0.00 | 94 | 1015.7 |
| 20260505041558 | 41 | 0 | 0.0 | 1.7 | 0.00 | 0.00 | 0.00 | 94 | 1015.5 |
| 20260505041019 | 41 | 0 | 0.0 | 1.7 | 0.00 | 0.00 | 0.00 | 94 | 1015.5 |
| 20260505040518 | 41 | 0 | 0.0 | 1.7 | 0.00 | 0.00 | 0.00 | 94 | 1015.5 |
| 20260505040045 | 41 | 14 | 0.0 | 1.7 | 0.00 | 0.00 | 0.00 | 94 | 1015.4 |
| 20260505035521 | 41 | 0 | 0.9 | 2.6 | 0.00 | 0.00 | 0.00 | 94 | 1015.5 |
| 20260505035021 | 41 | 14 | 0.9 | 2.6 | 0.00 | 0.00 | 0.00 | 94 | 1015.5 |
| 20260505034544 | 41 | 14 | 0.9 | 2.6 | 0.00 | 0.00 | 0.00 | 94 | 1015.4 |
| 20260505034021 | 41 | 14 | 0.9 | 3.5 | 0.00 | 0.00 | 0.00 | 94 | 1015.4 |
| 20260505033522 | 41 | 0 | 0.0 | 3.5 | 0.00 | 0.00 | 0.00 | 94 | 1015.4 |
| 20260505033037 | 41 | 14 | 1.7 | 3.5 | 0.00 | 0.00 | 0.00 | 94 | 1015.4 |
| 20260505032520 | 41 | 14 | 0.9 | 3.5 | 0.00 | 0.00 | 0.00 | 94 | 1015.4 |
| 20260505032021 | 41 | 14 | 0.9 | 3.5 | 0.00 | 0.00 | 0.00 | 94 | 1015.3 |
| 20260505031535 | 41 | 14 | 0.9 | 3.5 | 0.00 | 0.00 | 0.00 | 94 | 1015.4 |
| 20260505031018 | 41 | 14 | 0.9 | 2.6 | 0.00 | 0.00 | 0.00 | 93 | 1015.3 |
| 20260505030520 | 41 | 14 | 0.9 | 2.6 | 0.00 | 0.00 | 0.00 | 93 | 1015.3 |
| 20260505030042 | 41 | 14 | 0.9 | 2.6 | 0.00 | 0.00 | 0.00 | 93 | 1015.4 |
| 20260505025518 | 41 | 0 | 0.9 | 2.6 | 0.00 | 0.00 | 0.00 | 93 | 1015.3 |
| 20260505025021 | 42 | 14 | 0.0 | 1.7 | 0.00 | 0.00 | 0.00 | 93 | 1015.4 |
| 20260505024546 | 42 | 0 | 0.0 | 1.7 | 0.00 | 0.00 | 0.00 | 93 | 1015.4 |
| 20260505024020 | 42 | 0 | 0.0 | 1.7 | 0.00 | 0.00 | 0.00 | 93 | 1015.5 |
| 20260505023521 | 42 | 0 | 0.0 | 1.7 | 0.00 | 0.00 | 0.00 | 93 | 1015.5 |
| 20260505023046 | 42 | 0 | 0.0 | 0.9 | 0.00 | 0.00 | 0.00 | 93 | 1015.6 |
| 20260505022523 | 42 | 0 | 0.0 | 1.7 | 0.00 | 0.00 | 0.00 | 93 | 1015.6 |
| 20260505022021 | 42 | 0 | 0.0 | 1.7 | 0.00 | 0.00 | 0.00 | 93 | 1015.6 |
| 20260505021544 | 43 | 0 | 0.0 | 1.7 | 0.00 | 0.00 | 0.00 | 93 | 1015.6 |
| 20260505021018 | 43 | 0 | 0.0 | 1.7 | 0.00 | 0.00 | 0.00 | 93 | 1015.7 |
| 20260505020520 | 43 | 0 | 0.0 | 1.7 | 0.00 | 0.00 | 0.00 | 93 | 1015.7 |
| 20260505020036 | 43 | 0 | 0.0 | 0.0 | 0.00 | 0.00 | 0.00 | 93 | 1015.7 |
| 20260505015521 | 43 | 0 | 0.0 | 0.0 | 0.00 | 0.00 | 0.00 | 92 | 1015.8 |
| 20260505015021 | 43 | 0 | 0.0 | 0.0 | 0.00 | 0.00 | 0.00 | 92 | 1015.8 |
| 20260505014545 | 44 | 0 | 0.0 | 0.0 | 0.00 | 0.00 | 0.00 | 92 | 1015.8 |
| 20260505014021 | 44 | 0 | 0.0 | 0.0 | 0.00 | 0.00 | 0.00 | 92 | 1015.9 |
| 20260505013521 | 44 | 0 | 0.0 | 0.0 | 0.00 | 0.00 | 0.00 | 92 | 1015.9 |
| 20260505013041 | 44 | 0 | 0.0 | 0.9 | 0.00 | 0.00 | 0.00 | 92 | 1016.0 |
| 20260505012521 | 44 | 0 | 0.0 | 0.9 | 0.00 | 0.00 | 0.00 | 92 | 1016.0 |
| 20260505012022 | 45 | 14 | 0.0 | 0.9 | 0.00 | 0.00 | 0.00 | 92 | 1016.1 |
| 20260505011542 | 45 | 0 | 0.0 | 0.9 | 0.00 | 0.00 | 0.00 | 92 | 1016.2 |
| 20260505011019 | 45 | 0 | 0.0 | 0.9 | 0.00 | 0.00 | 0.00 | 92 | 1016.1 |
| 20260505010519 | 45 | 0 | 0.0 | 0.9 | 0.00 | 0.00 | 0.00 | 91 | 1016.1 |
| 20260505010044 | 45 | 0 | 0.0 | 1.7 | 0.00 | 0.00 | 0.00 | 92 | 1016.1 |
| 20260505005521 | 46 | 0 | 0.0 | 1.7 | 0.00 | 0.00 | 0.00 | 92 | 1016.1 |
| 20260505005024 | 46 | 0 | 0.0 | 1.7 | 0.00 | 0.00 | 0.00 | 91 | 1016.1 |
| 20260505004536 | 46 | 0 | 0.0 | 1.7 | 0.00 | 0.00 | 0.00 | 92 | 1016.1 |
| 20260505004017 | 46 | 0 | 0.0 | 1.7 | 0.00 | 0.00 | 0.00 | 92 | 1016.1 |
| 20260505003519 | 46 | 0 | 0.0 | 1.7 | 0.00 | 0.00 | 0.00 | 92 | 1016.1 |
| 20260505003041 | 47 | 0 | 0.0 | 1.7 | 0.00 | 0.00 | 0.00 | 92 | 1016.1 |
| 20260505002524 | 47 | 0 | 0.0 | 0.0 | 0.00 | 0.00 | 0.00 | 92 | 1016.1 |
| 20260505002021 | 47 | 0 | 0.0 | 0.0 | 0.00 | 0.00 | 0.00 | 92 | 1016.1 |
| 20260505001549 | 47 | 0 | 0.0 | 0.0 | 0.00 | 0.00 | 0.00 | 92 | 1016.2 |
| 20260505001019 | 47 | 0 | 0.0 | 0.0 | 0.00 | 0.00 | 0.00 | 92 | 1016.1 |
| 20260505000521 | 47 | 0 | 0.0 | 0.0 | 0.00 | 0.00 | 0.00 | 92 | 1016.2 |
| 20260505000049 | 47 | 0 | 0.0 | 0.0 | 0.00 | 0.00 | 0.00 | 92 | 1016.3 |
| 20260504235519 | 47 | 0 | 0.0 | 0.0 | 0.00 | 0.00 | 0.00 | 92 | 1016.3 |
| 20260504235019 | 47 | 0 | 0.0 | 0.0 | 0.00 | 0.00 | 0.00 | 92 | 1016.3 |
| 20260504234546 | 47 | 0 | 0.0 | 0.0 | 0.00 | 0.00 | 0.00 | 92 | 1016.4 |
| 20260504234020 | 47 | 0 | 0.0 | 0.0 | 0.00 | 0.00 | 0.00 | 92 | 1016.4 |
| 20260504233521 | 47 | 0 | 0.0 | 0.9 | 0.00 | 0.00 | 0.00 | 93 | 1016.4 |
| 20260504233040 | 47 | 0 | 0.0 | 0.9 | 0.00 | 0.00 | 0.00 | 93 | 1016.4 |
| 20260504232522 | 47 | 0 | 0.0 | 0.9 | 0.00 | 0.00 | 0.00 | 93 | 1016.4 |
| 20260504232020 | 47 | 0 | 0.0 | 1.7 | 0.00 | 0.00 | 0.00 | 93 | 1016.4 |
| 20260504231553 | 47 | 0 | 0.0 | 1.7 | 0.00 | 0.00 | 0.00 | 93 | 1016.4 |
| 20260504231024 | 47 | 0 | 0.0 | 1.7 | 0.00 | 0.00 | 0.00 | 93 | 1016.4 |
| 20260504230520 | 47 | 14 | 0.0 | 1.7 | 0.00 | 0.00 | 0.00 | 92 | 1016.4 |
| 20260504230043 | 47 | 0 | 0.0 | 0.9 | 0.00 | 0.00 | 0.00 | 93 | 1016.4 |
| 20260504225521 | 46 | 0 | 0.0 | 1.7 | 0.00 | 0.00 | 0.00 | 92 | 1016.4 |
| 20260504225021 | 46 | 0 | 0.0 | 1.7 | 0.00 | 0.00 | 0.00 | 92 | 1016.4 |
| 20260504224541 | 46 | 0 | 0.0 | 1.7 | 0.00 | 0.00 | 0.00 | 92 | 1016.3 |
| 20260504224023 | 46 | 0 | 0.0 | 1.7 | 0.00 | 0.00 | 0.00 | 91 | 1016.4 |
| 20260504223521 | 46 | 0 | 0.0 | 1.7 | 0.00 | 0.00 | 0.00 | 91 | 1016.4 |
| 20260504223040 | 46 | 0 | 0.0 | 1.7 | 0.00 | 0.00 | 0.00 | 91 | 1016.5 |
| 20260504222521 | 46 | 0 | 0.0 | 0.0 | 0.00 | 0.00 | 0.00 | 91 | 1016.5 |
| 20260504222021 | 46 | 0 | 0.0 | 0.0 | 0.00 | 0.00 | 0.00 | 91 | 1016.5 |
| 20260504221543 | 46 | 0 | 0.0 | 0.0 | 0.00 | 0.00 | 0.00 | 91 | 1016.5 |
| 20260504221019 | 46 | 0 | 0.0 | 0.0 | 0.00 | 0.00 | 0.00 | 91 | 1016.6 |
| 20260504220522 | 46 | 0 | 0.0 | 0.0 | 0.00 | 0.00 | 0.00 | 90 | 1016.6 |
| 20260504220037 | 46 | 0 | 0.0 | 0.0 | 0.00 | 0.00 | 0.00 | 89 | 1016.6 |
| 20260504215521 | 46 | 0 | 0.0 | 0.0 | 0.00 | 0.00 | 0.00 | 89 | 1016.7 |
| 20260504215021 | 46 | 0 | 0.0 | 0.0 | 0.00 | 0.00 | 0.00 | 89 | 1016.7 |
| 20260504214534 | 46 | 0 | 0.0 | 0.0 | 0.00 | 0.00 | 0.00 | 88 | 1016.8 |
| 20260504214023 | 47 | 0 | 0.0 | 0.0 | 0.00 | 0.00 | 0.00 | 88 | 1016.8 |
| 20260504213522 | 47 | 0 | 0.0 | 0.0 | 0.00 | 0.00 | 0.00 | 88 | 1016.8 |
| 20260504213044 | 47 | 0 | 0.0 | 0.0 | 0.00 | 0.00 | 0.00 | 88 | 1016.8 |
| 20260504212522 | 47 | 0 | 0.0 | 0.0 | 0.00 | 0.00 | 0.00 | 87 | 1016.8 |
| 20260504212019 | 47 | 0 | 0.0 | 0.0 | 0.00 | 0.00 | 0.00 | 87 | 1016.8 |
| 20260504211548 | 48 | 0 | 0.0 | 0.9 | 0.00 | 0.00 | 0.00 | 87 | 1016.9 |
| 20260504211021 | 48 | 0 | 0.0 | 1.7 | 0.00 | 0.00 | 0.00 | 87 | 1016.9 |
| 20260504210521 | 48 | 0 | 0.0 | 1.7 | 0.00 | 0.00 | 0.00 | 87 | 1016.9 |
| 20260504210100 | 48 | 0 | 0.0 | 2.6 | 0.00 | 0.00 | 0.00 | 87 | 1016.9 |
| 20260504205520 | 48 | 0 | 0.0 | 3.5 | 0.00 | 0.00 | 0.00 | 86 | 1016.9 |
| 20260504205020 | 48 | 0 | 0.0 | 3.5 | 0.00 | 0.00 | 0.00 | 86 | 1016.8 |
| 20260504204548 | 49 | 0 | 0.9 | 3.5 | 0.00 | 0.00 | 0.00 | 86 | 1016.8 |
| 20260504204021 | 49 | 14 | 0.9 | 2.6 | 0.00 | 0.00 | 0.00 | 85 | 1016.8 |
| 20260504203518 | 49 | 0 | 0.9 | 3.5 | 0.00 | 0.00 | 0.00 | 85 | 1016.8 |
| 20260504203048 | 49 | 14 | 0.9 | 4.3 | 0.00 | 0.00 | 0.00 | 85 | 1016.8 |
| 20260504202522 | 49 | 14 | 0.9 | 4.3 | 0.00 | 0.00 | 0.00 | 85 | 1016.8 |
| 20260504202021 | 50 | 14 | 1.7 | 4.3 | 0.00 | 0.00 | 0.00 | 85 | 1016.7 |
| 20260504201548 | 50 | 14 | 1.7 | 5.2 | 0.00 | 0.00 | 0.00 | 85 | 1016.6 |
| 20260504201022 | 50 | 14 | 0.9 | 5.2 | 0.00 | 0.00 | 0.00 | 85 | 1016.7 |
| 20260504200521 | 50 | 14 | 1.7 | 5.2 | 0.00 | 0.00 | 0.00 | 85 | 1016.6 |